Time;durP1;ratioP1;P1;durP2;ratioP2;P2;SDS_P1;SDS_P2;PMS_P1;PMS_P2;Temp;Humidity;BMP_temperature;BMP_pressure;BME280_temperature;BME280_humidity;BME280_pressure;Samples;Min_cycle;Max_cycle;Signal;HPM_P1;HPM_P2
2023/12/27 00:01:15;;;;;;;17.25;9.02;;;4.60;99.90;;;;;;20681677;28;20052;-40
2023/12/27 00:11:17;;;;;;;17.00;8.57;;;4.50;99.90;;;;;;20673816;28;20540;-40
2023/12/27 00:21:18;;;;;;;15.65;8.27;;;4.40;99.90;;;;;;20677656;28;20103;-40
2023/12/27 00:31:18;;;;;;;15.10;8.13;;;4.30;99.90;;;;;;20681579;28;20050;-40
2023/12/27 00:41:19;;;;;;;16.75;7.72;;;4.20;99.90;;;;;;20681383;28;20076;-40
2023/12/27 00:51:20;;;;;;;17.23;8.25;;;4.10;99.90;;;;;;20685085;28;20103;-40
2023/12/27 01:01:21;;;;;;;17.38;8.60;;;4.00;99.90;;;;;;20679801;28;20129;-40
2023/12/27 01:11:21;;;;;;;18.60;8.25;;;4.00;99.90;;;;;;20674065;28;20054;-39
2023/12/27 01:21:22;;;;;;;19.85;9.10;;;4.00;99.90;;;;;;20675532;28;20038;-40
2023/12/27 01:31:22;;;;;;;20.67;8.88;;;4.00;99.90;;;;;;20676684;28;20077;-40
2023/12/27 01:41:23;;;;;;;20.80;9.35;;;4.20;99.90;;;;;;20675139;28;20089;-40
2023/12/27 01:51:25;;;;;;;21.08;9.73;;;4.20;99.90;;;;;;20673405;28;20049;-40
2023/12/27 02:01:27;;;;;;;14.60;8.65;;;4.30;99.90;;;;;;20672921;28;20042;-39
2023/12/27 02:11:27;;;;;;;19.05;9.55;;;4.30;99.90;;;;;;20673057;28;20081;-39
2023/12/27 02:21:29;;;;;;;21.83;10.57;;;4.40;99.90;;;;;;20672435;28;20121;-40
2023/12/27 02:31:30;;;;;;;21.10;10.93;;;4.40;99.90;;;;;;20684723;28;20046;-39
2023/12/27 02:41:30;;;;;;;26.83;10.95;;;4.50;99.90;;;;;;20686839;28;20064;-39
2023/12/27 02:51:31;;;;;;;25.92;13.00;;;4.60;99.90;;;;;;20686389;28;20048;-39
2023/12/27 03:01:31;;;;;;;21.98;11.45;;;4.80;99.90;;;;;;20686158;28;20405;-40
2023/12/27 03:11:32;;;;;;;26.52;10.85;;;5.00;99.90;;;;;;20683000;28;20053;-39
2023/12/27 03:21:32;;;;;;;22.60;11.05;;;5.00;99.90;;;;;;20679541;28;20044;-40
2023/12/27 03:31:33;;;;;;;23.38;10.55;;;5.00;99.90;;;;;;20681779;28;20050;-39
2023/12/27 03:41:33;;;;;;;30.60;11.48;;;5.10;99.90;;;;;;20681121;28;20046;-39
2023/12/27 03:51:34;;;;;;;29.02;12.52;;;5.20;99.90;;;;;;20678169;28;20042;-39
2023/12/27 04:01:36;;;;;;;21.40;10.88;;;5.30;99.90;;;;;;20677919;28;20038;-39
2023/12/27 04:11:44;;;;;;;20.33;10.85;;;5.30;99.90;;;;;;20677979;28;20566;-40
2023/12/27 04:21:45;;;;;;;23.23;10.60;;;5.40;99.90;;;;;;20679388;28;20042;-40
2023/12/27 04:31:45;;;;;;;22.50;9.85;;;5.50;99.90;;;;;;20676365;28;20038;-39
2023/12/27 04:41:46;;;;;;;20.38;9.60;;;5.50;99.90;;;;;;20675234;28;20058;-39
2023/12/27 04:51:46;;;;;;;24.70;10.07;;;5.50;99.90;;;;;;20676241;28;20069;-39
2023/12/27 05:01:47;;;;;;;24.85;9.95;;;5.60;99.90;;;;;;20673512;28;20042;-40
2023/12/27 05:11:48;;;;;;;18.35;8.85;;;5.70;99.90;;;;;;20674788;28;20042;-41
2023/12/27 05:21:48;;;;;;;15.55;8.40;;;5.70;99.90;;;;;;20675251;28;20522;-39
2023/12/27 05:31:49;;;;;;;22.48;8.10;;;5.70;99.90;;;;;;20671638;28;20046;-40
2023/12/27 05:41:49;;;;;;;20.75;8.00;;;5.80;99.90;;;;;;20670536;28;20075;-39
2023/12/27 05:51:50;;;;;;;17.92;7.93;;;5.80;99.90;;;;;;20670566;28;20521;-40
2023/12/27 06:01:55;;;;;;;18.58;7.00;;;5.90;99.90;;;;;;20675992;28;20054;-40
2023/12/27 06:11:55;;;;;;;20.95;7.55;;;6.00;99.90;;;;;;20690958;28;20102;-39
2023/12/27 06:21:56;;;;;;;17.50;6.03;;;6.10;99.90;;;;;;20687541;28;20075;-40
2023/12/27 06:31:56;;;;;;;19.10;6.38;;;6.30;99.90;;;;;;20689390;28;20060;-39
2023/12/27 06:41:57;;;;;;;16.70;6.07;;;6.30;99.90;;;;;;20684495;28;20539;-39
2023/12/27 06:51:57;;;;;;;16.95;6.65;;;6.40;99.90;;;;;;20685520;28;20453;-39
2023/12/27 07:02:01;;;;;;;19.67;6.13;;;6.40;99.90;;;;;;20686252;28;20361;-40
2023/12/27 07:12:01;;;;;;;19.00;5.88;;;6.40;99.90;;;;;;20685013;28;20057;-40
2023/12/27 07:22:02;;;;;;;16.17;5.97;;;6.30;99.90;;;;;;20679192;28;20046;-40
2023/12/27 07:32:04;;;;;;;14.57;5.93;;;6.40;99.90;;;;;;20678568;28;20802;-40
2023/12/27 07:42:05;;;;;;;16.15;6.38;;;6.40;99.90;;;;;;20681102;28;20054;-41
2023/12/27 07:52:05;;;;;;;19.67;7.23;;;6.40;99.90;;;;;;20681977;28;20054;-41
2023/12/27 08:02:06;;;;;;;16.70;6.97;;;6.30;99.90;;;;;;20679853;28;20082;-41
2023/12/27 08:12:07;;;;;;;11.95;5.68;;;6.40;99.90;;;;;;20681899;28;20549;-40
2023/12/27 08:22:07;;;;;;;10.20;5.23;;;6.40;99.90;;;;;;20684205;28;20532;-41
2023/12/27 08:32:08;;;;;;;12.15;6.68;;;6.50;99.90;;;;;;20682564;28;20461;-40
2023/12/27 08:42:09;;;;;;;12.05;5.82;;;6.50;99.90;;;;;;20678462;28;20069;-40
2023/12/27 08:52:09;;;;;;;9.57;6.30;;;6.60;99.90;;;;;;20680382;28;20054;-40
2023/12/27 09:02:10;;;;;;;12.02;7.13;;;6.80;99.90;;;;;;20680289;28;20042;-41
2023/12/27 09:12:10;;;;;;;12.25;7.65;;;6.80;99.90;;;;;;20678583;28;20483;-41
2023/12/27 09:22:11;;;;;;;14.75;8.65;;;6.90;99.90;;;;;;20672422;28;20053;-41
2023/12/27 09:32:12;;;;;;;13.20;8.73;;;7.10;99.90;;;;;;20681241;28;20050;-41
2023/12/27 09:42:13;;;;;;;17.58;11.05;;;7.30;99.90;;;;;;20680883;28;20394;-40
2023/12/27 09:52:15;;;;;;;19.38;11.60;;;7.50;99.90;;;;;;20675419;28;20133;-40
2023/12/27 10:02:18;;;;;;;18.83;11.13;;;7.70;99.90;;;;;;20678382;28;20041;-40
2023/12/27 10:12:20;;;;;;;19.17;12.38;;;7.70;99.90;;;;;;20679084;28;20075;-40
2023/12/27 10:22:21;;;;;;;15.13;10.85;;;7.90;99.90;;;;;;20676415;28;20125;-40
2023/12/27 10:32:21;;;;;;;18.80;10.77;;;8.10;99.90;;;;;;20674943;28;20516;-40
2023/12/27 10:42:27;;;;;;;16.23;10.70;;;8.30;99.90;;;;;;20671854;28;20530;-40
2023/12/27 10:52:28;;;;;;;14.80;11.10;;;8.40;99.90;;;;;;20680514;28;20085;-40
2023/12/27 11:02:29;;;;;;;13.88;9.23;;;8.60;99.90;;;;;;20689914;28;20041;-40
2023/12/27 11:12:31;;;;;;;12.70;8.82;;;8.70;99.90;;;;;;20684875;28;20074;-41
2023/12/27 11:22:34;;;;;;;12.20;7.70;;;8.90;99.90;;;;;;20684025;28;20045;-40
2023/12/27 11:32:36;;;;;;;12.38;7.05;;;9.00;99.90;;;;;;20683279;28;20050;-40
2023/12/27 11:42:37;;;;;;;11.93;6.47;;;9.10;99.90;;;;;;20679901;28;20385;-40
2023/12/27 11:52:41;;;;;;;9.00;5.93;;;9.10;99.90;;;;;;20677465;28;20060;-41
2023/12/27 12:02:48;;;;;;;10.82;6.20;;;9.10;99.90;;;;;;20675625;28;20052;-41
2023/12/27 12:12:51;;;;;;;9.35;5.60;;;9.20;99.90;;;;;;20676070;28;20045;-40
2023/12/27 12:22:53;;;;;;;13.73;6.22;;;9.40;99.90;;;;;;20677026;28;20096;-40
2023/12/27 12:32:54;;;;;;;9.30;5.18;;;9.50;99.90;;;;;;20675470;28;20048;-40
2023/12/27 12:42:55;;;;;;;8.38;5.43;;;9.60;99.90;;;;;;20673489;28;20073;-41
2023/12/27 12:52:56;;;;;;;11.45;5.80;;;9.50;99.90;;;;;;20666414;28;20152;-40
2023/12/27 13:02:57;;;;;;;9.05;5.82;;;9.60;99.90;;;;;;20667188;28;20042;-40
2023/12/27 13:12:58;;;;;;;10.38;6.13;;;9.70;99.90;;;;;;20671227;28;20552;-40
2023/12/27 13:22:58;;;;;;;9.55;6.10;;;9.60;99.90;;;;;;20671155;28;20046;-41
2023/12/27 13:33:01;;;;;;;10.52;6.20;;;9.70;99.90;;;;;;20667451;28;20049;-41
2023/12/27 13:43:01;;;;;;;13.25;5.38;;;9.60;99.90;;;;;;20671104;28;20485;-41
2023/12/27 13:53:02;;;;;;;8.43;5.57;;;9.80;99.90;;;;;;20669029;28;20108;-40
2023/12/27 14:03:03;;;;;;;9.40;5.80;;;9.70;99.90;;;;;;20666247;28;20512;-40
2023/12/27 14:13:04;;;;;;;10.60;5.78;;;9.70;99.90;;;;;;20668617;28;20054;-40
2023/12/27 14:23:04;;;;;;;10.07;5.70;;;9.60;99.90;;;;;;20669379;28;20038;-40
2023/12/27 14:33:05;;;;;;;13.32;5.30;;;9.70;99.90;;;;;;20679726;28;20482;-40
2023/12/27 14:43:06;;;;;;;10.65;5.25;;;9.80;99.90;;;;;;20680617;28;20042;-40
2023/12/27 14:53:06;;;;;;;11.52;5.50;;;9.60;99.90;;;;;;20679636;28;20038;-40
2023/12/27 15:03:07;;;;;;;9.63;5.00;;;9.60;99.90;;;;;;20679459;28;20046;-40
2023/12/27 15:13:07;;;;;;;9.07;4.60;;;9.60;96.00;;;;;;20680093;28;20052;-40
2023/12/27 15:23:08;;;;;;;9.02;4.68;;;9.60;91.10;;;;;;20676516;28;20070;-40
2023/12/27 15:33:08;;;;;;;7.53;4.38;;;9.60;85.70;;;;;;20677262;28;20485;-40
2023/12/27 15:43:09;;;;;;;9.10;4.45;;;9.60;77.90;;;;;;20652664;28;20073;-40
2023/12/27 15:53:11;;;;;;;8.60;4.43;;;9.70;58.30;;;;;;20655071;28;20065;-40
2023/12/27 16:03:12;;;;;;;9.15;3.30;;;9.70;50.20;;;;;;20680704;28;20291;-41
2023/12/27 16:13:14;;;;;;;10.23;4.20;;;9.70;43.70;;;;;;20670411;28;20516;-41
2023/12/27 16:23:15;;;;;;;6.45;3.20;;;9.70;37.30;;;;;;20670921;28;20513;-41
2023/12/27 16:33:16;;;;;;;19.33;6.90;;;9.60;37.40;;;;;;20673943;28;20058;-40
2023/12/27 16:43:19;;;;;;;7.80;3.45;;;9.60;34.90;;;;;;20649511;28;20495;-40
2023/12/27 16:53:20;;;;;;;7.93;3.42;;;9.50;30.30;;;;;;20661006;28;20161;-41
2023/12/27 17:03:21;;;;;;;11.70;4.18;;;9.40;30.60;;;;;;20668541;28;20492;-40
2023/12/27 17:13:21;;;;;;;9.00;3.40;;;9.40;26.70;;;;;;20666951;28;20450;-40
2023/12/27 17:23:22;;;;;;;8.82;3.83;;;9.30;26.60;;;;;;20674279;28;20042;-40
2023/12/27 17:33:22;;;;;;;12.50;4.10;;;9.30;19.50;;;;;;20670329;28;20104;-40
2023/12/27 17:43:23;;;;;;;7.68;3.22;;;9.30;16.00;;;;;;20668705;28;20465;-40
2023/12/27 17:53:23;;;;;;;9.30;3.47;;;9.30;12.00;;;;;;20669557;28;20049;-40
2023/12/27 18:03:24;;;;;;;9.57;2.92;;;9.30;6.10;;;;;;20664766;28;20508;-41
2023/12/27 18:13:24;;;;;;;7.10;2.63;;;9.10;5.60;;;;;;20669733;28;20108;-40
2023/12/27 18:23:26;;;;;;;7.72;3.08;;;9.20;1.00;;;;;;20660834;28;20042;-40
2023/12/27 18:33:26;;;;;;;5.00;3.17;;;9.20;1.00;;;;;;20655222;28;20050;-40
2023/12/27 18:43:27;;;;;;;5.95;3.25;;;9.20;1.00;;;;;;20668118;28;20042;-40
2023/12/27 18:53:28;;;;;;;5.70;2.40;;;9.30;1.00;;;;;;20668219;28;20074;-40
2023/12/27 19:03:30;;;;;;;5.63;2.10;;;9.50;1.00;;;;;;20665998;28;20293;-40
2023/12/27 19:13:30;;;;;;;4.57;1.80;;;9.40;1.00;;;;;;20678301;28;20042;-40
2023/12/27 19:23:32;;;;;;;6.95;3.15;;;9.60;1.00;;;;;;20680327;28;20409;-40
2023/12/27 19:33:33;;;;;;;5.43;2.25;;;9.70;1.00;;;;;;20680423;28;20077;-40
2023/12/27 19:43:33;;;;;;;4.93;2.05;;;9.80;1.00;;;;;;20681778;28;20104;-40
2023/12/27 19:53:34;;;;;;;4.30;1.70;;;9.90;1.00;;;;;;20678379;28;20542;-40
2023/12/27 20:03:34;;;;;;;5.13;2.15;;;9.90;1.00;;;;;;20677729;28;20048;-40
2023/12/27 20:13:35;;;;;;;4.32;2.10;;;9.60;1.00;;;;;;20678917;28;20049;-40
2023/12/27 20:23:40;;;;;;;7.07;2.30;;;9.20;1.00;;;;;;20676482;28;20042;-40
2023/12/27 20:33:40;;;;;;;6.90;1.98;;;9.10;1.00;;;;;;20657411;28;20049;-40
2023/12/27 20:43:41;;;;;;;5.47;2.90;;;9.20;1.00;;;;;;20674350;28;20042;-40
2023/12/27 20:53:42;;;;;;;6.70;2.10;;;9.30;1.00;;;;;;20671551;28;20058;-40
2023/12/27 21:03:42;;;;;;;3.83;2.20;;;9.40;1.00;;;;;;20659065;28;21139;-40
2023/12/27 21:13:43;;;;;;;4.15;2.03;;;9.70;1.00;;;;;;20672415;28;20174;-40
2023/12/27 21:23:44;;;;;;;4.72;2.50;;;9.70;1.00;;;;;;20671785;28;20100;-40
2023/12/27 21:33:46;;;;;;;4.40;2.50;;;9.80;1.00;;;;;;20669947;28;20092;-40
2023/12/27 21:43:47;;;;;;;5.30;2.35;;;9.90;1.00;;;;;;20669605;28;20048;-40
2023/12/27 21:53:47;;;;;;;5.22;2.83;;;10.10;1.00;;;;;;20671564;28;20057;-40
2023/12/27 22:03:49;;;;;;;3.83;2.22;;;10.10;1.00;;;;;;20670360;28;20440;-40
2023/12/27 22:13:51;;;;;;;5.65;2.63;;;10.30;1.00;;;;;;20667722;28;20096;-40
2023/12/27 22:23:51;;;;;;;8.98;2.95;;;10.20;1.00;;;;;;20668067;28;20046;-40
2023/12/27 22:33:52;;;;;;;8.95;3.00;;;10.10;1.00;;;;;;20666460;28;20077;-40
2023/12/27 22:43:53;;;;;;;5.57;2.67;;;10.30;1.00;;;;;;20673271;28;20105;-40
2023/12/27 22:53:53;;;;;;;6.95;2.80;;;10.50;1.00;;;;;;20683387;28;20490;-40
2023/12/27 23:03:54;;;;;;;5.00;2.65;;;10.70;1.00;;;;;;20682228;28;20061;-40
2023/12/27 23:13:55;;;;;;;5.95;2.70;;;10.70;1.00;;;;;;20683358;28;20046;-40
2023/12/27 23:23:55;;;;;;;6.07;2.88;;;10.60;1.00;;;;;;20681741;28;20076;-40
2023/12/27 23:33:56;;;;;;;5.47;2.75;;;10.60;1.00;;;;;;20657820;28;20502;-40
2023/12/27 23:43:56;;;;;;;5.50;2.78;;;10.60;1.00;;;;;;20680488;28;20069;-40
2023/12/27 23:53:57;;;;;;;4.90;2.65;;;10.70;1.00;;;;;;20676595;28;20041;-40
